Time;durP1;ratioP1;P1;durP2;ratioP2;P2;SDS_P1;SDS_P2;PMS_P1;PMS_P2;Temp;Humidity;BMP_temperature;BMP_pressure;BME280_temperature;BME280_humidity;BME280_pressure;Samples;Min_cycle;Max_cycle;Signal;HPM_P1;HPM_P2
2022/11/08 00:02:23;;;;;;;7.27;2.07;;;12.00;99.90;;;;;;5064456;28;20210;-76
2022/11/08 00:04:49;;;;;;;7.87;2.33;;;12.00;99.90;;;;;;5054680;28;20214;-74
2022/11/08 00:15:28;;;;;;;5.03;2.43;;;12.00;99.90;;;;;;5069183;28;20237;-74
2022/11/08 00:17:54;;;;;;;7.00;2.33;;;12.00;99.90;;;;;;5068781;28;20167;-74
2022/11/08 00:20:20;;;;;;;7.83;2.57;;;11.90;99.90;;;;;;5070481;28;20598;-75
2022/11/08 00:22:46;;;;;;;7.87;2.10;;;11.90;99.90;;;;;;5054400;28;20218;-74
2022/11/08 00:25:11;;;;;;;6.77;2.20;;;11.80;99.90;;;;;;5068408;28;20210;-74
2022/11/08 00:27:37;;;;;;;4.23;2.10;;;11.80;99.90;;;;;;5072176;28;20222;-74
2022/11/08 00:30:03;;;;;;;6.17;2.37;;;11.80;99.90;;;;;;5065230;28;20179;-73
2022/11/08 00:32:29;;;;;;;7.33;2.60;;;11.70;99.90;;;;;;5053921;28;20602;-74
2022/11/08 00:34:54;;;;;;;7.23;2.17;;;11.70;99.90;;;;;;5067550;28;20218;-74
2022/11/08 00:37:21;;;;;;;7.53;2.30;;;11.70;99.90;;;;;;5064717;28;20218;-75
2022/11/08 00:39:47;;;;;;;5.13;2.50;;;11.70;99.90;;;;;;5051838;28;20225;-74
2022/11/08 00:42:13;;;;;;;8.23;2.90;;;11.70;99.90;;;;;;5068869;28;20171;-71
2022/11/08 00:44:38;;;;;;;4.90;2.50;;;11.70;99.90;;;;;;5066732;28;20195;-76
2022/11/08 00:47:16;;;;;;;7.07;2.40;;;11.80;99.90;;;;;;5069665;28;20257;-73
2022/11/08 00:49:41;;;;;;;7.17;2.23;;;11.70;99.90;;;;;;5068958;28;20234;-73
2022/11/08 00:52:07;;;;;;;5.63;2.27;;;11.70;99.90;;;;;;5066368;28;20611;-73
2022/11/08 00:54:32;;;;;;;7.87;2.53;;;11.70;99.90;;;;;;5054169;28;20207;-75
2022/11/08 00:56:58;;;;;;;4.90;2.10;;;11.70;99.90;;;;;;5068278;28;20714;-75
2022/11/08 00:59:23;;;;;;;6.63;2.90;;;11.70;99.90;;;;;;5051331;28;20206;-72
2022/11/08 01:01:49;;;;;;;5.80;2.00;;;11.60;99.90;;;;;;5050630;28;20210;-73
2022/11/08 01:04:17;;;;;;;6.37;2.87;;;11.60;99.90;;;;;;5066470;28;20245;-73
2022/11/08 01:06:43;;;;;;;5.63;2.60;;;11.60;99.90;;;;;;5052411;28;20203;-73
2022/11/08 01:09:08;;;;;;;4.80;2.10;;;11.60;99.90;;;;;;5066425;28;20171;-71
2022/11/08 01:11:34;;;;;;;8.20;2.40;;;11.60;99.90;;;;;;5069139;28;20224;-73
2022/11/08 01:14:00;;;;;;;6.83;2.50;;;11.60;99.90;;;;;;5070166;28;20580;-72
2022/11/08 01:16:31;;;;;;;6.70;2.70;;;11.60;99.90;;;;;;5070723;28;20254;-73
2022/11/08 01:18:58;;;;;;;7.50;2.30;;;11.60;99.90;;;;;;5070026;28;20245;-72
2022/11/08 01:21:25;;;;;;;7.87;2.93;;;11.60;99.90;;;;;;5049823;28;20557;-72
2022/11/08 01:23:50;;;;;;;4.80;2.07;;;11.50;99.90;;;;;;5066407;28;20264;-73
2022/11/08 01:26:19;;;;;;;5.57;2.53;;;11.50;99.90;;;;;;5067302;28;20199;-72
2022/11/08 01:28:46;;;;;;;6.73;2.53;;;11.50;99.90;;;;;;5053716;28;20207;-73
2022/11/08 01:31:14;;;;;;;5.67;2.43;;;11.50;99.90;;;;;;5062775;28;20227;-73
2022/11/08 01:33:40;;;;;;;6.00;2.30;;;11.50;99.90;;;;;;5069149;28;20291;-72
2022/11/08 01:36:07;;;;;;;5.07;2.30;;;11.50;99.90;;;;;;5069192;28;20217;-71
2022/11/08 01:38:33;;;;;;;5.00;2.73;;;11.50;99.90;;;;;;5068334;28;20202;-71
2022/11/08 01:40:59;;;;;;;10.77;2.50;;;11.40;99.90;;;;;;5067701;28;20735;-69
2022/11/08 01:43:25;;;;;;;5.33;2.40;;;11.40;99.90;;;;;;5067523;28;20216;-70
2022/11/08 01:46:11;;;;;;;9.37;2.50;;;11.40;99.90;;;;;;5050262;28;20345;-71
2022/11/08 01:48:41;;;;;;;7.40;2.67;;;11.40;99.90;;;;;;5043384;28;20199;-70
2022/11/08 01:51:10;;;;;;;7.33;2.87;;;11.40;99.90;;;;;;5051306;28;20178;-71
2022/11/08 01:53:36;;;;;;;6.20;2.40;;;11.40;99.90;;;;;;5067365;28;20218;-71
2022/11/08 01:56:03;;;;;;;7.73;3.10;;;11.40;99.90;;;;;;5069311;28;20210;-70
2022/11/08 01:58:33;;;;;;;7.37;2.10;;;11.40;99.90;;;;;;5065376;28;20213;-71
2022/11/08 02:01:01;;;;;;;8.87;2.70;;;11.40;99.90;;;;;;5068023;28;20245;-70
2022/11/08 02:03:28;;;;;;;2.53;1.83;;;11.50;99.90;;;;;;5067554;28;20218;-71
2022/11/08 02:05:54;;;;;;;4.97;2.23;;;11.50;99.90;;;;;;5066916;28;20599;-71
2022/11/08 02:08:22;;;;;;;5.13;2.00;;;11.50;99.90;;;;;;5069225;28;20324;-71
2022/11/08 02:10:51;;;;;;;4.63;2.57;;;11.60;99.90;;;;;;5064310;28;20203;-71
2022/11/08 02:13:26;;;;;;;5.47;2.50;;;11.60;99.90;;;;;;5065461;28;20207;-71
2022/11/08 02:15:52;;;;;;;4.87;2.03;;;11.50;99.90;;;;;;5069852;28;20207;-70
2022/11/08 02:18:20;;;;;;;5.70;2.30;;;11.60;99.90;;;;;;5062894;28;20726;-71
2022/11/08 02:21:21;;;;;;;7.47;2.67;;;11.60;99.90;;;;;;5068319;28;20685;-70
2022/11/08 02:23:47;;;;;;;6.17;2.40;;;11.60;99.90;;;;;;5061839;28;20230;-70
2022/11/08 02:26:15;;;;;;;7.37;2.80;;;11.50;99.90;;;;;;5067036;28;20233;-70
2022/11/08 02:28:42;;;;;;;6.60;2.37;;;11.40;99.90;;;;;;5051678;28;20587;-70
2022/11/08 02:31:12;;;;;;;6.53;2.17;;;11.40;99.90;;;;;;5064860;28;20206;-71
2022/11/08 02:33:38;;;;;;;7.93;2.60;;;11.40;99.90;;;;;;5065786;28;20230;-70
2022/11/08 02:36:06;;;;;;;7.37;2.37;;;11.40;99.90;;;;;;5069323;28;20215;-70
2022/11/08 02:38:37;;;;;;;8.27;2.40;;;11.40;99.90;;;;;;5065523;28;20210;-70
2022/11/08 02:41:03;;;;;;;7.33;2.37;;;11.40;99.90;;;;;;5064198;28;20211;-70
2022/11/08 02:43:28;;;;;;;4.93;2.20;;;11.40;99.90;;;;;;5060575;28;20251;-71
2022/11/08 02:45:57;;;;;;;6.40;2.47;;;11.50;99.90;;;;;;5064612;28;20210;-71
2022/11/08 02:48:23;;;;;;;4.00;2.10;;;11.40;99.90;;;;;;5068206;28;20645;-70
2022/11/08 02:50:49;;;;;;;5.37;2.13;;;11.40;99.90;;;;;;5067347;28;20182;-71
2022/11/08 02:53:15;;;;;;;8.67;2.63;;;11.40;99.90;;;;;;5064089;28;20776;-70
2022/11/08 02:55:40;;;;;;;7.30;2.93;;;11.30;99.90;;;;;;5051320;28;20207;-71
2022/11/08 02:58:06;;;;;;;6.57;2.40;;;11.30;99.90;;;;;;5065045;28;20852;-70
2022/11/08 03:00:32;;;;;;;6.47;2.33;;;11.30;99.90;;;;;;5066400;28;20218;-71
2022/11/08 03:02:58;;;;;;;5.60;2.53;;;11.30;99.90;;;;;;5059828;28;20179;-70
2022/11/08 03:05:25;;;;;;;5.73;2.33;;;11.30;99.90;;;;;;5062547;28;20203;-70
2022/11/08 03:07:51;;;;;;;7.23;2.73;;;11.20;99.90;;;;;;5067041;28;20273;-71
2022/11/08 03:10:17;;;;;;;4.90;2.17;;;11.20;99.90;;;;;;5066037;28;20294;-70
2022/11/08 03:12:43;;;;;;;3.93;2.70;;;11.20;99.90;;;;;;5065067;28;20206;-70
2022/11/08 03:15:11;;;;;;;10.63;2.60;;;11.20;99.90;;;;;;5066567;28;20183;-70
2022/11/08 03:17:36;;;;;;;13.17;2.60;;;11.20;99.90;;;;;;5067384;28;20180;-70
2022/11/08 03:20:02;;;;;;;5.17;2.77;;;11.20;99.90;;;;;;5063531;28;20241;-70
2022/11/08 03:22:28;;;;;;;3.70;2.23;;;11.20;99.90;;;;;;5068885;28;20207;-70
2022/11/08 03:24:54;;;;;;;5.43;2.43;;;11.30;99.90;;;;;;5066679;28;20588;-70
2022/11/08 03:27:19;;;;;;;7.13;2.57;;;11.30;99.90;;;;;;5064591;28;20286;-70
2022/11/08 03:29:45;;;;;;;4.90;2.50;;;11.30;99.90;;;;;;5069141;28;20210;-70
2022/11/08 03:32:12;;;;;;;8.60;2.50;;;11.30;99.90;;;;;;5064747;28;20226;-70
2022/11/08 03:34:38;;;;;;;9.47;2.60;;;11.30;99.90;;;;;;5066147;28;20226;-71
2022/11/08 03:37:04;;;;;;;6.67;2.23;;;11.30;99.90;;;;;;5056880;28;20217;-71
2022/11/08 03:39:30;;;;;;;6.87;2.80;;;11.40;99.90;;;;;;5062663;28;20222;-71
2022/11/08 03:41:55;;;;;;;8.23;3.33;;;11.40;99.90;;;;;;5047799;28;20175;-69
2022/11/08 03:44:21;;;;;;;5.17;2.37;;;11.30;99.90;;;;;;5062732;28;20567;-70
2022/11/08 03:46:47;;;;;;;7.47;2.80;;;11.30;99.90;;;;;;5065068;28;20290;-70
2022/11/08 03:49:12;;;;;;;7.10;2.70;;;11.30;99.90;;;;;;5066753;28;20336;-70
2022/11/08 03:51:38;;;;;;;4.83;2.60;;;11.20;99.90;;;;;;5063077;28;20230;-70
2022/11/08 03:54:04;;;;;;;5.57;2.50;;;11.10;99.90;;;;;;5064112;28;20199;-70
2022/11/08 03:56:29;;;;;;;6.77;2.57;;;11.10;99.90;;;;;;5068813;28;20230;-70
2022/11/08 03:58:55;;;;;;;4.57;2.40;;;11.00;99.90;;;;;;5062812;28;20588;-70
2022/11/08 04:01:20;;;;;;;4.77;2.30;;;11.00;99.90;;;;;;5064878;28;20227;-70
2022/11/08 04:03:46;;;;;;;9.00;3.03;;;11.00;99.90;;;;;;5065392;28;20697;-70
2022/11/08 04:06:11;;;;;;;7.67;2.50;;;10.90;99.90;;;;;;5061073;28;20193;-70
2022/11/08 04:08:37;;;;;;;4.67;2.43;;;10.90;99.90;;;;;;5067419;28;20265;-71
2022/11/08 04:16:31;;;;;;;8.80;2.50;;;10.80;99.90;;;;;;5065048;28;20217;-71
2022/11/08 04:21:45;;;;;;;7.57;2.50;;;10.80;99.90;;;;;;5063944;28;20654;-69
2022/11/08 04:24:11;;;;;;;7.63;2.30;;;10.80;99.90;;;;;;5057342;28;20207;-69
2022/11/08 04:26:38;;;;;;;9.20;2.77;;;10.80;99.90;;;;;;5065109;28;20171;-70
2022/11/08 04:29:04;;;;;;;4.73;2.47;;;10.80;99.90;;;;;;5068978;28;20209;-69
2022/11/08 04:31:30;;;;;;;7.53;2.57;;;10.80;99.90;;;;;;5053273;28;20709;-70
2022/11/08 04:33:55;;;;;;;7.67;2.63;;;10.80;99.90;;;;;;5067035;28;20305;-69
2022/11/08 04:36:21;;;;;;;9.63;2.83;;;10.70;99.90;;;;;;5065004;28;20211;-69
2022/11/08 04:38:48;;;;;;;9.47;3.37;;;10.70;99.90;;;;;;5066449;28;20210;-70
2022/11/08 04:41:15;;;;;;;8.10;3.13;;;10.70;99.90;;;;;;5065059;28;20212;-71
2022/11/08 04:43:40;;;;;;;7.50;2.93;;;10.60;99.90;;;;;;5071212;28;20206;-70
2022/11/08 04:46:10;;;;;;;10.13;2.63;;;10.60;99.90;;;;;;5066229;28;20199;-70
2022/11/08 04:48:36;;;;;;;5.57;2.43;;;10.60;99.90;;;;;;5065916;28;20230;-70
2022/11/08 04:51:09;;;;;;;6.83;2.80;;;10.60;99.90;;;;;;5062080;28;20230;-69
2022/11/08 04:53:35;;;;;;;11.57;4.23;;;10.60;99.90;;;;;;5054287;28;20347;-70
2022/11/08 04:56:09;;;;;;;4.47;2.70;;;10.50;99.90;;;;;;5068766;28;20211;-70
2022/11/08 04:58:40;;;;;;;4.77;2.33;;;10.60;99.90;;;;;;5065129;28;20742;-71
2022/11/08 05:01:07;;;;;;;10.40;2.87;;;10.50;99.90;;;;;;5065563;28;20234;-70
2022/11/08 05:03:33;;;;;;;8.63;3.17;;;10.50;99.90;;;;;;5070835;28;20217;-70
2022/11/08 05:06:04;;;;;;;6.07;2.90;;;10.50;99.90;;;;;;5064533;28;20254;-70
2022/11/08 05:08:31;;;;;;;8.10;3.00;;;10.50;99.90;;;;;;5067635;28;20306;-71
2022/11/08 05:11:04;;;;;;;8.87;3.27;;;10.50;99.90;;;;;;5069768;28;20211;-70
2022/11/08 05:13:30;;;;;;;7.27;2.87;;;10.50;99.90;;;;;;5064926;28;20211;-71
2022/11/08 05:16:05;;;;;;;9.33;3.13;;;10.50;99.90;;;;;;5053062;28;20289;-71
2022/11/08 05:18:32;;;;;;;4.53;2.77;;;10.50;99.90;;;;;;5066019;28;20218;-70
2022/11/08 05:23:43;;;;;;;6.20;2.97;;;10.40;99.90;;;;;;5068860;28;20210;-70
2022/11/08 05:26:09;;;;;;;5.80;3.27;;;10.40;99.90;;;;;;5065657;28;20240;-70
2022/11/08 05:28:35;;;;;;;6.90;3.10;;;10.40;99.90;;;;;;5066018;28;20214;-71
2022/11/08 05:31:02;;;;;;;9.27;2.93;;;10.40;99.90;;;;;;5068481;28;20206;-71
2022/11/08 05:33:28;;;;;;;11.97;3.20;;;10.40;99.90;;;;;;5064069;28;20218;-70
2022/11/08 05:35:54;;;;;;;7.30;3.50;;;10.30;99.90;;;;;;5068448;28;20300;-70
2022/11/08 05:38:20;;;;;;;10.53;3.53;;;10.30;99.90;;;;;;5066113;28;20215;-71
2022/11/08 05:40:46;;;;;;;8.47;3.50;;;10.30;99.90;;;;;;5067453;28;20226;-71
2022/11/08 05:43:12;;;;;;;9.17;3.47;;;10.30;99.90;;;;;;5068238;28;20211;-71
2022/11/08 05:45:37;;;;;;;10.53;3.57;;;10.30;99.90;;;;;;5053280;28;20558;-71
2022/11/08 05:48:03;;;;;;;12.57;3.83;;;10.30;99.90;;;;;;5065012;28;20186;-70
2022/11/08 05:50:33;;;;;;;6.77;3.83;;;10.30;99.90;;;;;;5065330;28;20207;-71
2022/11/08 05:52:59;;;;;;;8.23;3.73;;;10.20;99.90;;;;;;5063019;28;20207;-70
2022/11/08 05:55:25;;;;;;;9.90;3.10;;;10.20;99.90;;;;;;5068552;28;20715;-71
2022/11/08 05:57:51;;;;;;;8.03;3.50;;;10.20;99.90;;;;;;5051965;28;20592;-71
2022/11/08 06:00:17;;;;;;;6.50;3.37;;;10.20;99.90;;;;;;5052315;28;20202;-71
2022/11/08 06:02:43;;;;;;;8.17;4.03;;;10.20;99.90;;;;;;5068189;28;20174;-72
2022/11/08 06:05:08;;;;;;;7.80;3.97;;;10.20;99.90;;;;;;5069604;28;20559;-70
2022/11/08 06:07:34;;;;;;;9.30;3.67;;;10.20;99.90;;;;;;5062153;28;20215;-71
2022/11/08 06:10:00;;;;;;;8.90;3.57;;;10.30;99.90;;;;;;5068580;28;20210;-71
2022/11/08 06:12:26;;;;;;;5.30;3.00;;;10.30;99.90;;;;;;5070784;28;20185;-70
2022/11/08 06:14:51;;;;;;;8.80;4.27;;;10.30;99.90;;;;;;5066517;28;20202;-71
2022/11/08 06:17:17;;;;;;;7.70;3.50;;;10.20;99.90;;;;;;5067657;28;20203;-71
2022/11/08 06:19:43;;;;;;;8.80;3.57;;;10.20;99.90;;;;;;5067120;28;20207;-71
2022/11/08 06:22:09;;;;;;;7.43;3.10;;;10.20;99.90;;;;;;5066944;28;20287;-71
2022/11/08 06:24:35;;;;;;;7.60;3.37;;;10.20;99.90;;;;;;5069021;28;20221;-71
2022/11/08 06:27:00;;;;;;;10.47;4.40;;;10.20;99.90;;;;;;5071202;28;20189;-69
2022/11/08 06:29:26;;;;;;;9.80;3.50;;;10.30;99.90;;;;;;5066993;28;20211;-71
2022/11/08 06:31:51;;;;;;;5.37;3.30;;;10.30;99.90;;;;;;5052451;28;20214;-72
2022/11/08 06:34:17;;;;;;;7.23;3.27;;;10.30;99.90;;;;;;5061793;28;20258;-71
2022/11/08 06:36:42;;;;;;;7.53;3.80;;;10.30;99.90;;;;;;5052381;28;20582;-72
2022/11/08 06:39:08;;;;;;;8.03;3.07;;;10.30;99.90;;;;;;5069619;28;20653;-72
2022/11/08 06:41:34;;;;;;;6.87;3.50;;;10.40;99.90;;;;;;5066626;28;20213;-72
2022/11/08 06:43:59;;;;;;;10.13;3.50;;;10.40;99.90;;;;;;5066890;28;20233;-71
2022/11/08 06:46:25;;;;;;;6.87;3.90;;;10.40;99.90;;;;;;5067149;28;20208;-72
2022/11/08 06:48:51;;;;;;;8.23;3.40;;;10.40;99.90;;;;;;5056666;22;20227;-78
2022/11/08 06:51:17;;;;;;;7.47;2.93;;;10.40;99.90;;;;;;5041834;28;20186;-75
2022/11/08 06:53:43;;;;;;;10.50;3.47;;;10.40;99.90;;;;;;5054839;28;20258;-76
2022/11/08 06:56:09;;;;;;;8.37;3.57;;;10.40;99.90;;;;;;5037896;28;20208;-76
2022/11/08 06:58:35;;;;;;;9.80;3.57;;;10.40;99.90;;;;;;5055282;28;20215;-75
2022/11/08 07:01:05;;;;;;;11.87;3.83;;;10.50;99.90;;;;;;5030377;28;20219;-75
2022/11/08 07:03:31;;;;;;;7.17;3.43;;;10.50;99.90;;;;;;5024300;28;20212;-76
2022/11/08 07:05:59;;;;;;;10.80;3.67;;;10.60;99.90;;;;;;5032478;28;20676;-76
2022/11/08 07:08:25;;;;;;;5.97;3.50;;;10.80;99.90;;;;;;5045471;28;20211;-76
2022/11/08 07:10:50;;;;;;;7.53;3.27;;;11.50;99.90;;;;;;5022760;28;20326;-76
2022/11/08 07:13:16;;;;;;;7.77;3.23;;;12.70;99.90;;;;;;5039127;28;20220;-76
2022/11/08 07:15:42;;;;;;;7.60;3.40;;;13.80;99.90;;;;;;5027287;28;20204;-77
2022/11/08 07:18:10;;;;;;;8.47;2.60;;;14.70;99.90;;;;;;5045001;28;20200;-76
2022/11/08 07:20:37;;;;;;;6.00;3.40;;;14.10;99.90;;;;;;5018606;28;20223;-76
2022/11/08 07:23:03;;;;;;;23.70;16.73;;;14.40;99.90;;;;;;5030614;28;20290;-75
2022/11/08 07:25:29;;;;;;;7.70;3.05;;;14.40;99.90;;;;;;5025115;28;20207;-77
2022/11/08 07:28:00;;;;;;;6.22;3.00;;;15.20;99.90;;;;;;5046099;28;20294;-76
2022/11/08 07:30:26;;;;;;;7.88;3.15;;;15.20;99.90;;;;;;5026805;28;20180;-76
2022/11/08 07:32:52;;;;;;;10.35;2.88;;;15.90;99.90;;;;;;5046575;28;20183;-76
2022/11/08 07:35:18;;;;;;;8.57;3.33;;;16.40;99.90;;;;;;5039922;28;20204;-76
2022/11/08 07:37:43;;;;;;;7.30;2.53;;;16.90;99.90;;;;;;5044652;28;20203;-76
2022/11/08 07:40:09;;;;;;;5.28;2.65;;;16.80;99.90;;;;;;5032417;28;20224;-77
2022/11/08 07:42:36;;;;;;;4.82;2.70;;;16.70;99.90;;;;;;5048405;28;20212;-78
2022/11/08 07:45:03;;;;;;;7.43;2.70;;;16.90;99.90;;;;;;5048501;28;20214;-76
2022/11/08 07:47:29;;;;;;;7.15;2.67;;;17.00;99.90;;;;;;5051671;28;20249;-75
2022/11/08 07:49:54;;;;;;;5.55;3.08;;;16.90;99.90;;;;;;5037756;28;20220;-76
2022/11/08 07:52:20;;;;;;;7.13;2.70;;;17.30;99.90;;;;;;5042429;28;20212;-77
2022/11/08 07:54:45;;;;;;;6.93;2.65;;;17.00;99.90;;;;;;5038349;28;20243;-77
2022/11/08 07:57:11;;;;;;;6.75;2.80;;;17.40;99.90;;;;;;5026493;28;20561;-77
2022/11/08 07:59:36;;;;;;;10.23;2.97;;;17.60;99.90;;;;;;5041731;28;20553;-75
2022/11/08 08:02:02;;;;;;;4.55;2.63;;;17.30;99.90;;;;;;5028259;28;20215;-76
2022/11/08 08:04:29;;;;;;;7.13;3.22;;;16.50;99.90;;;;;;5028989;28;20219;-76
2022/11/08 08:06:56;;;;;;;7.80;3.00;;;16.10;99.90;;;;;;5030709;28;20204;-76
2022/11/08 08:09:22;;;;;;;8.77;3.05;;;16.10;99.90;;;;;;5024222;28;20196;-78
2022/11/08 08:11:47;;;;;;;5.38;2.65;;;16.00;99.90;;;;;;5031918;28;20541;-77
2022/11/08 08:14:13;;;;;;;11.45;3.05;;;15.90;99.90;;;;;;5046986;28;20693;-77
2022/11/08 08:16:39;;;;;;;5.63;2.78;;;16.10;99.90;;;;;;5053271;28;20219;-76
2022/11/08 08:19:04;;;;;;;6.05;3.17;;;16.30;99.90;;;;;;5057652;28;20701;-75
2022/11/08 08:21:30;;;;;;;7.40;2.90;;;15.90;99.90;;;;;;5039865;28;20216;-77
2022/11/08 08:23:55;;;;;;;8.77;3.00;;;15.80;99.90;;;;;;5037106;28;20719;-77
2022/11/08 08:26:21;;;;;;;10.63;3.42;;;15.70;99.90;;;;;;5049123;28;20214;-77
2022/11/08 08:28:47;;;;;;;8.70;2.83;;;15.60;99.90;;;;;;5047018;28;20340;-77
2022/11/08 08:31:12;;;;;;;6.80;3.08;;;15.90;99.90;;;;;;5033770;28;20235;-77
2022/11/08 08:33:38;;;;;;;8.07;2.72;;;16.10;99.90;;;;;;5036275;28;20302;-76
2022/11/08 08:36:04;;;;;;;6.88;2.92;;;16.00;99.90;;;;;;5047117;28;20187;-75
2022/11/08 08:38:31;;;;;;;5.75;2.75;;;15.80;99.90;;;;;;5029235;28;20238;-77
2022/11/08 08:40:57;;;;;;;5.50;2.53;;;15.60;99.90;;;;;;5030260;28;20219;-76
2022/11/08 08:43:23;;;;;;;4.07;2.63;;;15.60;99.90;;;;;;5024123;28;20615;-77
2022/11/08 08:45:49;;;;;;;6.15;2.58;;;15.70;99.90;;;;;;5030290;28;20215;-78
2022/11/08 08:48:15;;;;;;;6.75;2.67;;;15.90;99.90;;;;;;5028697;28;20236;-77
2022/11/08 08:50:41;;;;;;;6.78;1.90;;;16.00;99.90;;;;;;5030584;28;20305;-76
2022/11/08 08:53:07;;;;;;;4.00;2.42;;;16.00;99.90;;;;;;5025177;28;20230;-77
2022/11/08 08:55:35;;;;;;;5.72;2.40;;;15.90;99.90;;;;;;5026389;28;20208;-77
2022/11/08 08:58:02;;;;;;;13.23;2.80;;;15.60;99.90;;;;;;5043477;28;20212;-75
2022/11/08 09:00:28;;;;;;;6.78;2.58;;;15.50;99.90;;;;;;5043764;28;20196;-76
2022/11/08 09:02:53;;;;;;;7.63;2.58;;;15.70;99.90;;;;;;5044746;28;20572;-74
2022/11/08 09:05:19;;;;;;;5.97;2.30;;;15.80;99.90;;;;;;5029150;28;20320;-76
2022/11/08 09:07:44;;;;;;;5.07;2.25;;;16.20;99.90;;;;;;5046086;28;20214;-76
2022/11/08 09:10:10;;;;;;;7.05;2.42;;;16.30;99.90;;;;;;5041805;28;20215;-76
2022/11/08 09:12:37;;;;;;;6.90;2.70;;;16.20;99.90;;;;;;5030877;28;20602;-76
2022/11/08 09:15:04;;;;;;;6.93;2.47;;;16.00;99.90;;;;;;5029407;28;20180;-75
2022/11/08 09:17:29;;;;;;;8.18;2.80;;;16.30;99.90;;;;;;5043903;28;20216;-77
2022/11/08 09:19:55;;;;;;;4.50;2.30;;;16.40;99.90;;;;;;5031544;28;20288;-74
2022/11/08 09:22:21;;;;;;;5.88;2.20;;;16.50;99.90;;;;;;5046276;28;20699;-76
2022/11/08 09:24:46;;;;;;;10.63;2.78;;;16.70;99.90;;;;;;5052501;28;20210;-76
2022/11/08 09:27:12;;;;;;;6.20;2.20;;;16.80;99.90;;;;;;5045800;28;20191;-76
2022/11/08 09:29:38;;;;;;;6.40;2.28;;;16.50;99.90;;;;;;5028307;28;20212;-76
2022/11/08 09:32:03;;;;;;;6.20;2.45;;;16.30;99.90;;;;;;5042539;28;20259;-75
2022/11/08 09:34:29;;;;;;;6.82;2.22;;;16.20;99.90;;;;;;5039282;28;20212;-77
2022/11/08 09:36:55;;;;;;;5.40;2.50;;;16.50;99.90;;;;;;5045000;28;20215;-76
2022/11/08 09:39:20;;;;;;;8.98;2.20;;;16.50;99.90;;;;;;5044599;28;20200;-76
2022/11/08 09:42:14;;;;;;;4.85;2.33;;;16.60;99.90;;;;;;5043239;28;20303;-76
2022/11/08 09:44:57;;;;;;;7.47;2.15;;;16.60;99.90;;;;;;5043728;28;20219;-77
2022/11/08 09:47:28;;;;;;;7.32;2.33;;;16.60;99.90;;;;;;5049582;28;20220;-76
2022/11/08 09:50:12;;;;;;;4.68;2.20;;;16.50;99.90;;;;;;5050202;28;20606;-77
2022/11/08 09:52:41;;;;;;;3.60;1.85;;;16.50;99.90;;;;;;5042361;28;20662;-79
2022/11/08 09:55:15;;;;;;;6.30;2.47;;;16.40;99.90;;;;;;5025712;28;20265;-77
2022/11/08 09:58:18;;;;;;;6.75;2.88;;;16.60;99.90;;;;;;5041250;28;20306;-76
2022/11/08 10:00:44;;;;;;;7.93;3.35;;;16.80;99.90;;;;;;5028475;28;20222;-76
2022/11/08 10:03:14;;;;;;;4.32;2.25;;;17.10;99.90;;;;;;5039208;28;20171;-76
2022/11/08 10:05:55;;;;;;;3.92;2.15;;;17.30;99.90;;;;;;5025550;28;20175;-75
2022/11/08 10:08:31;;;;;;;6.47;2.58;;;17.10;99.90;;;;;;5044207;28;20708;-74
2022/11/08 10:11:09;;;;;;;5.95;2.05;;;17.10;99.90;;;;;;5045756;28;20287;-79
2022/11/08 10:14:11;;;;;;;8.25;2.72;;;17.20;99.90;;;;;;5041889;28;20226;-76
2022/11/08 10:16:56;;;;;;;6.25;3.45;;;16.90;99.90;;;;;;5040414;28;20207;-76
2022/11/08 10:19:52;;;;;;;6.55;2.65;;;16.80;99.90;;;;;;5048033;28;20215;-75
2022/11/08 10:22:27;;;;;;;4.50;2.17;;;16.90;99.90;;;;;;5021581;28;20204;-73
2022/11/08 10:25:00;;;;;;;8.82;2.55;;;16.60;99.90;;;;;;5040718;28;20344;-75
2022/11/08 10:27:35;;;;;;;5.75;2.22;;;16.60;99.90;;;;;;5040423;28;20717;-74
2022/11/08 10:30:12;;;;;;;4.80;2.35;;;16.70;99.90;;;;;;5021840;28;20613;-75
2022/11/08 10:32:38;;;;;;;5.63;1.90;;;16.80;99.90;;;;;;5042948;28;20279;-73
2022/11/08 10:35:45;;;;;;;5.70;1.75;;;16.80;99.90;;;;;;5026922;28;20689;-73
2022/11/08 10:38:24;;;;;;;10.88;5.72;;;17.00;99.90;;;;;;5041103;28;20302;-77
2022/11/08 10:41:10;;;;;;;5.53;2.42;;;17.00;99.90;;;;;;5039262;28;20223;-74
2022/11/08 10:43:48;;;;;;;7.05;2.58;;;17.00;99.90;;;;;;5043336;28;20211;-75
2022/11/08 10:46:40;;;;;;;8.50;2.22;;;17.00;99.90;;;;;;5022617;28;20202;-76
2022/11/08 10:49:35;;;;;;;7.40;1.80;;;17.10;99.90;;;;;;5024912;28;20219;-78
2022/11/08 10:52:11;;;;;;;5.70;2.40;;;17.20;99.90;;;;;;5040206;28;20208;-75
2022/11/08 10:54:50;;;;;;;4.78;1.88;;;17.30;99.90;;;;;;5045069;28;20755;-76
2022/11/08 10:57:21;;;;;;;4.03;1.90;;;17.10;99.90;;;;;;5025120;28;20207;-74
2022/11/08 10:59:47;;;;;;;7.82;2.38;;;17.00;99.90;;;;;;5027273;28;20777;-74
2022/11/08 11:02:26;;;;;;;6.75;2.00;;;17.10;99.90;;;;;;5027835;28;20294;-75
2022/11/08 11:04:53;;;;;;;5.85;2.28;;;17.20;99.90;;;;;;5037106;28;20204;-73
2022/11/08 11:07:29;;;;;;;3.45;1.65;;;17.20;99.90;;;;;;5038583;28;20204;-73
2022/11/08 11:09:55;;;;;;;4.57;1.95;;;17.20;99.90;;;;;;5021852;28;20285;-75
2022/11/08 11:12:21;;;;;;;11.23;4.53;;;17.00;99.90;;;;;;5040569;28;20212;-72
2022/11/08 11:14:56;;;;;;;7.13;2.33;;;17.20;99.90;;;;;;5040855;28;20188;-75
2022/11/08 11:17:28;;;;;;;4.85;1.73;;;17.20;99.90;;;;;;5028952;28;20208;-77
2022/11/08 11:19:55;;;;;;;4.80;1.90;;;17.20;99.90;;;;;;5021563;28;20635;-75
2022/11/08 11:22:32;;;;;;;4.50;2.10;;;17.10;99.90;;;;;;5042052;28;20207;-74
2022/11/08 11:25:05;;;;;;;3.83;1.77;;;16.80;99.90;;;;;;5040681;28;20207;-73
2022/11/08 11:27:36;;;;;;;4.30;1.85;;;16.80;99.90;;;;;;5041094;28;20211;-75
2022/11/08 11:30:11;;;;;;;7.90;2.42;;;16.90;99.90;;;;;;5026598;28;20320;-76
2022/11/08 11:32:38;;;;;;;6.22;2.00;;;17.10;99.90;;;;;;5042553;28;20214;-77
2022/11/08 11:35:06;;;;;;;5.50;2.20;;;17.10;99.90;;;;;;5026180;28;20212;-77
2022/11/08 11:37:40;;;;;;;4.68;2.00;;;17.20;99.90;;;;;;5031559;28;20712;-76
2022/11/08 11:40:40;;;;;;;6.85;2.22;;;17.10;99.90;;;;;;5026795;28;20248;-73
2022/11/08 11:43:51;;;;;;;3.55;1.65;;;17.10;99.90;;;;;;5027738;28;20208;-74
2022/11/08 11:46:25;;;;;;;3.45;1.98;;;16.80;99.90;;;;;;4999362;28;20631;-73
2022/11/08 11:48:58;;;;;;;3.58;1.88;;;16.80;99.90;;;;;;5042001;28;20292;-74
2022/11/08 11:51:27;;;;;;;3.80;1.80;;;16.80;99.90;;;;;;5042069;28;20189;-76
2022/11/08 11:53:54;;;;;;;6.05;1.90;;;16.80;99.90;;;;;;5031569;28;20176;-75
2022/11/08 11:56:40;;;;;;;4.25;1.55;;;16.80;99.90;;;;;;5025202;28;20212;-76
2022/11/08 11:59:18;;;;;;;4.90;2.58;;;16.80;99.90;;;;;;5027521;28;20243;-78
2022/11/08 12:01:56;;;;;;;4.35;1.92;;;16.90;99.90;;;;;;5031347;28;20294;-76
2022/11/08 12:04:53;;;;;;;6.28;1.92;;;16.90;99.90;;;;;;5030026;28;20211;-76
2022/11/08 12:07:28;;;;;;;4.10;1.85;;;16.90;99.90;;;;;;5026273;28;20197;-76
2022/11/08 12:10:12;;;;;;;4.85;1.73;;;17.00;99.90;;;;;;5030270;28;20211;-78
2022/11/08 12:13:02;;;;;;;2.67;1.30;;;17.10;99.90;;;;;;5027562;28;20208;-78
2022/11/08 12:16:05;;;;;;;5.75;1.90;;;17.00;99.90;;;;;;5030866;28;21228;-76
2022/11/08 12:18:56;;;;;;;5.30;1.40;;;17.20;99.90;;;;;;5020354;28;20572;-76
2022/11/08 12:21:47;;;;;;;6.38;2.17;;;17.00;99.90;;;;;;5023422;28;20246;-76
2022/11/08 12:24:30;;;;;;;8.00;1.52;;;17.00;99.90;;;;;;5042132;28;20191;-76
2022/11/08 12:27:28;;;;;;;4.65;1.80;;;17.10;99.90;;;;;;5026786;28;20231;-78
2022/11/08 12:30:16;;;;;;;4.03;1.98;;;17.00;99.90;;;;;;5041612;28;20204;-77
2022/11/08 12:32:54;;;;;;;4.97;1.60;;;17.00;99.90;;;;;;5046845;28;20208;-74
2022/11/08 12:35:47;;;;;;;7.00;2.90;;;16.90;99.90;;;;;;5026903;28;20261;-77
2022/11/08 12:38:28;;;;;;;3.72;1.58;;;17.00;99.90;;;;;;5042479;28;20254;-78
2022/11/08 12:41:12;;;;;;;7.05;1.83;;;17.00;99.90;;;;;;5030159;28;20216;-75
2022/11/08 12:44:00;;;;;;;8.07;2.35;;;17.00;99.90;;;;;;5021833;28;20217;-75
2022/11/08 12:46:29;;;;;;;5.68;1.80;;;17.00;99.90;;;;;;5031850;28;20724;-75
2022/11/08 12:49:15;;;;;;;2.95;1.77;;;17.10;99.90;;;;;;5040116;28;20224;-75
2022/11/08 12:54:33;;;;;;;5.93;1.52;;;17.00;99.90;;;;;;5072518;28;20242;-74
2022/11/08 12:57:05;;;;;;;6.13;1.73;;;16.90;99.90;;;;;;5065202;28;20198;-74
2022/11/08 12:59:41;;;;;;;4.85;1.30;;;17.00;99.90;;;;;;5074074;28;20287;-74
2022/11/08 13:02:20;;;;;;;5.03;1.80;;;17.00;99.90;;;;;;5059066;28;20209;-75
2022/11/08 13:04:56;;;;;;;6.00;1.55;;;17.00;99.90;;;;;;5053383;28;20207;-76
2022/11/08 13:07:33;;;;;;;3.53;1.60;;;16.90;99.90;;;;;;5062304;28;20206;-74
2022/11/08 13:10:01;;;;;;;6.25;2.03;;;16.90;99.90;;;;;;5045022;28;20693;-76
2022/11/08 13:12:30;;;;;;;3.33;1.60;;;16.80;99.90;;;;;;5069119;28;20230;-77
2022/11/08 13:14:59;;;;;;;3.45;1.67;;;16.80;99.90;;;;;;5064450;28;20548;-76
2022/11/08 13:17:27;;;;;;;6.20;2.10;;;16.70;99.90;;;;;;5064385;28;20210;-77
2022/11/08 13:19:54;;;;;;;4.57;1.45;;;16.70;99.90;;;;;;5051172;28;20218;-76
2022/11/08 13:22:29;;;;;;;4.32;1.58;;;16.70;99.90;;;;;;5065373;28;20214;-75